createdAt,value
2023-03-29T08:47:13.376Z,12.08
2023-03-29T08:49:40.551Z,12.14
2023-03-29T08:52:14.537Z,12.49
2023-03-29T08:54:42.778Z,12.48
2023-03-29T08:57:14.539Z,12.35
2023-03-29T08:59:41.661Z,12.25
2023-03-29T09:02:15.146Z,12.49
2023-03-29T09:04:42.397Z,12.51
2023-03-29T09:07:09.928Z,12.78
2023-03-29T09:09:37.114Z,12.89
2023-03-29T09:12:08.526Z,12.90
2023-03-29T09:14:45.825Z,12.69
2023-03-29T09:17:19.091Z,12.75
2023-03-29T09:19:49.161Z,12.45
2023-03-29T09:22:19.423Z,12.38
2023-03-29T09:24:55.175Z,12.41
2023-03-29T09:27:24.439Z,12.39
2023-03-29T09:29:56.666Z,12.23
2023-03-29T09:32:27.718Z,12.46
2023-03-29T09:34:58.924Z,12.96
2023-03-29T09:37:29.899Z,12.75
2023-03-29T09:39:57.334Z,12.31
2023-03-29T09:42:24.583Z,12.55
2023-03-29T09:44:52.894Z,12.35
2023-03-29T09:47:22.164Z,12.88
2023-03-29T09:49:52.319Z,12.81
2023-03-29T09:52:19.663Z,12.58
2023-03-29T09:54:46.935Z,12.38
2023-03-29T09:57:16.410Z,12.63
2023-03-29T09:59:43.788Z,12.48
2023-03-29T10:02:11.764Z,12.53
2023-03-29T10:04:39.124Z,12.81
2023-03-29T10:07:08.008Z,13.38
2023-03-29T10:09:35.226Z,12.90
2023-03-29T10:12:06.213Z,12.76
2023-03-29T10:14:35.212Z,12.98
2023-03-29T10:17:04.553Z,12.80
2023-03-29T10:19:32.576Z,12.56
2023-03-29T10:22:00.486Z,13.03
2023-03-29T10:24:29.154Z,12.87
2023-03-29T10:26:58.437Z,12.51
2023-03-29T10:29:26.270Z,13.05
2023-03-29T10:31:53.566Z,12.52
2023-03-29T10:34:20.941Z,12.36
2023-03-29T10:36:52.408Z,12.34
2023-03-29T10:39:19.789Z,12.91
2023-03-29T10:41:50.254Z,13.20
2023-03-29T10:44:28.651Z,12.50
2023-03-29T10:46:57.028Z,12.74
2023-03-29T10:49:24.233Z,12.72
2023-03-29T10:51:51.482Z,12.60
2023-03-29T10:54:20.404Z,13.15
2023-03-29T10:56:51.359Z,12.87
2023-03-29T10:59:26.058Z,13.05
2023-03-29T11:02:10.469Z,12.90
2023-03-29T11:04:39.154Z,13.03
2023-03-29T11:07:19.835Z,13.52
2023-03-29T11:09:48.569Z,13.25
2023-03-29T11:12:18.939Z,13.51
2023-03-29T11:14:52.400Z,13.87
2023-03-29T11:17:26.906Z,13.44
2023-03-29T11:20:03.100Z,13.11
2023-03-29T11:22:37.747Z,13.10
2023-03-29T11:25:13.931Z,13.16
2023-03-29T11:27:45.927Z,13.27
2023-03-29T11:30:15.944Z,13.70
2023-03-29T11:32:48.393Z,13.61
2023-03-29T11:35:36.586Z,13.90
2023-03-29T11:38:07.271Z,13.68
2023-03-29T11:40:44.376Z,13.83
2023-03-29T11:43:14.682Z,13.64
